TimeMST,TemperatureF,Dew PointF,Humidity,Sea Level PressureIn,VisibilityMPH,Wind Direction,Wind SpeedMPH,Gust SpeedMPH,PrecipitationIn,Events,Conditions,WindDirDegrees,DateUTC
12:48 AM,3.0,-0.0,87,30.19,-9999.0,West,6.9,-,N/A,,Unknown,270,2013-01-04 07:48:00
1:48 AM,3.0,-0.9,84,30.17,-9999.0,West,5.8,-,N/A,,Unknown,270,2013-01-04 08:48:00
2:48 AM,-2.0,-6.0,83,30.18,-9999.0,West,6.9,-,N/A,,Unknown,270,2013-01-04 09:48:00
3:48 AM,-0.0,-2.9,88,30.17,-9999.0,Calm,Calm,-,N/A,,Unknown,0,2013-01-04 10:48:00
4:48 AM,1.9,-2.0,83,30.18,-9999.0,West,3.5,-,N/A,,Unknown,270,2013-01-04 11:48:00
5:48 AM,1.9,-2.0,83,30.17,-9999.0,Calm,Calm,-,N/A,,Unknown,0,2013-01-04 12:48:00
6:48 AM,5.0,1.0,84,30.19,-9999.0,West,3.5,-,N/A,,Unknown,280,2013-01-04 13:48:00
7:48 AM,3.0,-0.9,84,30.19,-9999.0,West,3.5,-,N/A,,Unknown,280,2013-01-04 14:48:00
8:48 AM,9.0,5.0,84,30.19,-9999.0,West,4.6,-,N/A,,Unknown,270,2013-01-04 15:48:00
9:48 AM,21.9,12.0,66,30.17,-9999.0,West,8.1,-,N/A,,Unknown,270,2013-01-04 16:48:00
10:48 AM,30.0,15.1,54,30.17,-9999.0,West,8.1,-,N/A,,Unknown,260,2013-01-04 17:48:00
11:48 AM,33.1,19.0,56,30.13,-9999.0,West,9.2,-,N/A,,Unknown,270,2013-01-04 18:48:00
12:48 PM,36.0,19.9,52,30.11,-9999.0,West,8.1,-,N/A,,Unknown,270,2013-01-04 19:48:00
1:48 PM,37.9,21.9,53,30.09,-9999.0,West,8.1,-,N/A,,Unknown,270,2013-01-04 20:48:00
2:48 PM,37.9,23.0,55,30.10,-9999.0,WSW,8.1,-,N/A,,Unknown,240,2013-01-04 21:48:00
3:48 PM,34.0,23.0,64,30.12,-9999.0,West,6.9,-,N/A,,Unknown,270,2013-01-04 22:48:00
4:48 PM,27.0,19.9,75,30.14,-9999.0,Calm,Calm,-,N/A,,Unknown,0,2013-01-04 23:48:00
5:48 PM,21.9,17.1,82,30.15,-9999.0,Calm,Calm,-,N/A,,Unknown,0,2013-01-05 00:48:00
6:48 PM,24.1,18.0,77,30.13,-9999.0,West,9.2,-,N/A,,Unknown,270,2013-01-05 01:48:00
7:48 PM,27.0,19.9,75,30.14,-9999.0,WNW,4.6,-,N/A,,Unknown,300,2013-01-05 02:48:00
8:48 PM,27.0,19.9,75,30.12,-9999.0,West,6.9,-,N/A,,Unknown,270,2013-01-05 03:48:00
9:48 PM,27.0,21.0,78,30.11,-9999.0,West,11.5,-,N/A,,Unknown,280,2013-01-05 04:48:00
10:48 PM,27.0,21.0,78,30.12,-9999.0,WNW,12.7,-,N/A,,Unknown,300,2013-01-05 05:48:00
11:48 PM,30.0,21.9,72,30.12,-9999.0,WNW,13.8,-,N/A,,Unknown,290,2013-01-05 06:48:00